sensor_id;sensor_type;location;lat;lon;timestamp;P1;durP1;ratioP1;P2;durP2;ratioP2
28613;SDS011;15806;53.548;9.964;2022-08-11T00:01:27;3.28;;;2.15;;
28613;SDS011;15806;53.548;9.964;2022-08-11T00:03:10;5.32;;;2.10;;
28613;SDS011;15806;53.548;9.964;2022-08-11T00:04:53;5.53;;;1.80;;
28613;SDS011;15806;53.548;9.964;2022-08-11T00:06:35;6.65;;;2.28;;
28613;SDS011;15806;53.548;9.964;2022-08-11T00:10:02;11.73;;;1.98;;
28613;SDS011;15806;53.548;9.964;2022-08-11T00:11:47;7.93;;;2.30;;
28613;SDS011;15806;53.548;9.964;2022-08-11T00:13:33;6.20;;;2.10;;
28613;SDS011;15806;53.548;9.964;2022-08-11T00:15:26;6.30;;;2.35;;
28613;SDS011;15806;53.548;9.964;2022-08-11T00:17:18;6.68;;;2.53;;
28613;SDS011;15806;53.548;9.964;2022-08-11T00:18:59;8.83;;;2.00;;
28613;SDS011;15806;53.548;9.964;2022-08-11T00:20:41;8.27;;;2.03;;
28613;SDS011;15806;53.548;9.964;2022-08-11T00:22:24;7.30;;;2.45;;
28613;SDS011;15806;53.548;9.964;2022-08-11T00:24:06;6.22;;;1.90;;
28613;SDS011;15806;53.548;9.964;2022-08-11T00:25:48;8.35;;;2.45;;
28613;SDS011;15806;53.548;9.964;2022-08-11T00:27:33;5.00;;;2.30;;
28613;SDS011;15806;53.548;9.964;2022-08-11T00:29:15;6.85;;;2.30;;
28613;SDS011;15806;53.548;9.964;2022-08-11T00:31:06;7.88;;;2.50;;
28613;SDS011;15806;53.548;9.964;2022-08-11T00:32:52;5.88;;;2.80;;
28613;SDS011;15806;53.548;9.964;2022-08-11T00:34:35;6.43;;;2.58;;
28613;SDS011;15806;53.548;9.964;2022-08-11T00:36:18;9.43;;;2.60;;
28613;SDS011;15806;53.548;9.964;2022-08-11T00:38:02;4.03;;;2.40;;
28613;SDS011;15806;53.548;9.964;2022-08-11T00:39:45;5.45;;;2.20;;
28613;SDS011;15806;53.548;9.964;2022-08-11T00:41:33;4.40;;;2.30;;
28613;SDS011;15806;53.548;9.964;2022-08-11T00:43:23;15.63;;;2.35;;
28613;SDS011;15806;53.548;9.964;2022-08-11T00:45:21;5.22;;;2.40;;
28613;SDS011;15806;53.548;9.964;2022-08-11T00:59:39;7.73;;;2.43;;
28613;SDS011;15806;53.548;9.964;2022-08-11T01:08:34;6.90;;;2.33;;
28613;SDS011;15806;53.548;9.964;2022-08-11T01:12:29;7.15;;;2.50;;
28613;SDS011;15806;53.548;9.964;2022-08-11T01:18:55;7.03;;;2.30;;
28613;SDS011;15806;53.548;9.964;2022-08-11T01:23:37;7.38;;;2.35;;
28613;SDS011;15806;53.548;9.964;2022-08-11T01:27:12;5.72;;;2.30;;
28613;SDS011;15806;53.548;9.964;2022-08-11T01:37:57;7.22;;;2.50;;
28613;SDS011;15806;53.548;9.964;2022-08-11T01:44:55;7.63;;;2.35;;
28613;SDS011;15806;53.548;9.964;2022-08-11T01:46:51;5.85;;;2.60;;
28613;SDS011;15806;53.548;9.964;2022-08-11T01:48:52;11.23;;;2.67;;
28613;SDS011;15806;53.548;9.964;2022-08-11T01:51:00;8.77;;;2.58;;
28613;SDS011;15806;53.548;9.964;2022-08-11T01:59:25;5.07;;;2.92;;
28613;SDS011;15806;53.548;9.964;2022-08-11T02:11:44;8.40;;;2.65;;
28613;SDS011;15806;53.548;9.964;2022-08-11T02:15:44;9.65;;;2.90;;
28613;SDS011;15806;53.548;9.964;2022-08-11T02:20:57;6.80;;;2.77;;
28613;SDS011;15806;53.548;9.964;2022-08-11T02:24:27;13.73;;;3.13;;
28613;SDS011;15806;53.548;9.964;2022-08-11T02:26:16;5.20;;;2.60;;
28613;SDS011;15806;53.548;9.964;2022-08-11T02:28:18;11.40;;;2.88;;
28613;SDS011;15806;53.548;9.964;2022-08-11T02:30:10;12.27;;;3.22;;
28613;SDS011;15806;53.548;9.964;2022-08-11T02:34:06;6.07;;;2.88;;
28613;SDS011;15806;53.548;9.964;2022-08-11T02:42:29;8.25;;;2.47;;
28613;SDS011;15806;53.548;9.964;2022-08-11T02:46:18;7.38;;;3.00;;
28613;SDS011;15806;53.548;9.964;2022-08-11T02:48:02;5.82;;;2.78;;
28613;SDS011;15806;53.548;9.964;2022-08-11T02:49:49;4.00;;;2.40;;
28613;SDS011;15806;53.548;9.964;2022-08-11T02:53:50;7.97;;;2.78;;
28613;SDS011;15806;53.548;9.964;2022-08-11T02:55:58;8.32;;;3.90;;
28613;SDS011;15806;53.548;9.964;2022-08-11T02:58:00;7.57;;;3.05;;
28613;SDS011;15806;53.548;9.964;2022-08-11T02:59:59;9.30;;;2.92;;
28613;SDS011;15806;53.548;9.964;2022-08-11T03:01:49;13.45;;;3.22;;
28613;SDS011;15806;53.548;9.964;2022-08-11T03:03:53;5.85;;;2.75;;
28613;SDS011;15806;53.548;9.964;2022-08-11T03:06:07;5.03;;;2.95;;
28613;SDS011;15806;53.548;9.964;2022-08-11T03:08:17;7.50;;;2.92;;
28613;SDS011;15806;53.548;9.964;2022-08-11T03:12:29;8.68;;;3.10;;
28613;SDS011;15806;53.548;9.964;2022-08-11T03:24:13;8.70;;;3.05;;
28613;SDS011;15806;53.548;9.964;2022-08-11T03:27:51;7.85;;;2.80;;
28613;SDS011;15806;53.548;9.964;2022-08-11T03:34:16;10.50;;;3.55;;
28613;SDS011;15806;53.548;9.964;2022-08-11T03:38:16;5.90;;;3.30;;
28613;SDS011;15806;53.548;9.964;2022-08-11T03:40:06;7.45;;;2.97;;
28613;SDS011;15806;53.548;9.964;2022-08-11T03:45:59;10.98;;;3.30;;
28613;SDS011;15806;53.548;9.964;2022-08-11T03:48:01;7.22;;;3.20;;
28613;SDS011;15806;53.548;9.964;2022-08-11T03:50:21;9.18;;;3.30;;
28613;SDS011;15806;53.548;9.964;2022-08-11T03:52:25;8.68;;;3.40;;
28613;SDS011;15806;53.548;9.964;2022-08-11T03:58:24;6.80;;;3.23;;
28613;SDS011;15806;53.548;9.964;2022-08-11T04:20:28;5.22;;;3.70;;
28613;SDS011;15806;53.548;9.964;2022-08-11T04:39:32;11.05;;;3.70;;
28613;SDS011;15806;53.548;9.964;2022-08-11T04:50:14;4.32;;;3.25;;
28613;SDS011;15806;53.548;9.964;2022-08-11T04:56:08;5.43;;;3.53;;
28613;SDS011;15806;53.548;9.964;2022-08-11T05:01:54;10.63;;;4.28;;
28613;SDS011;15806;53.548;9.964;2022-08-11T05:06:15;8.43;;;3.90;;
28613;SDS011;15806;53.548;9.964;2022-08-11T05:12:51;8.02;;;4.47;;
28613;SDS011;15806;53.548;9.964;2022-08-11T05:14:36;11.65;;;4.63;;
28613;SDS011;15806;53.548;9.964;2022-08-11T05:16:24;10.82;;;4.57;;
28613;SDS011;15806;53.548;9.964;2022-08-11T05:18:15;11.40;;;5.10;;
28613;SDS011;15806;53.548;9.964;2022-08-11T05:19:59;10.05;;;4.90;;
28613;SDS011;15806;53.548;9.964;2022-08-11T05:21:41;9.77;;;4.70;;
28613;SDS011;15806;53.548;9.964;2022-08-11T05:23:25;8.68;;;4.88;;
28613;SDS011;15806;53.548;9.964;2022-08-11T05:25:08;10.23;;;4.93;;
28613;SDS011;15806;53.548;9.964;2022-08-11T05:26:50;6.40;;;4.47;;
28613;SDS011;15806;53.548;9.964;2022-08-11T05:28:34;10.65;;;4.68;;
28613;SDS011;15806;53.548;9.964;2022-08-11T05:30:16;9.35;;;5.15;;
28613;SDS011;15806;53.548;9.964;2022-08-11T05:31:57;9.73;;;4.73;;
28613;SDS011;15806;53.548;9.964;2022-08-11T05:33:55;10.10;;;4.95;;
28613;SDS011;15806;53.548;9.964;2022-08-11T05:35:42;15.18;;;5.43;;
28613;SDS011;15806;53.548;9.964;2022-08-11T05:39:14;12.65;;;5.80;;
28613;SDS011;15806;53.548;9.964;2022-08-11T05:40:58;10.32;;;4.93;;
28613;SDS011;15806;53.548;9.964;2022-08-11T05:42:42;14.57;;;6.57;;
28613;SDS011;15806;53.548;9.964;2022-08-11T05:44:28;11.43;;;5.63;;
28613;SDS011;15806;53.548;9.964;2022-08-11T05:46:10;13.73;;;5.38;;
28613;SDS011;15806;53.548;9.964;2022-08-11T05:47:51;15.90;;;6.10;;
28613;SDS011;15806;53.548;9.964;2022-08-11T05:49:32;14.57;;;6.07;;
28613;SDS011;15806;53.548;9.964;2022-08-11T05:51:14;19.38;;;6.70;;
28613;SDS011;15806;53.548;9.964;2022-08-11T05:52:55;16.73;;;6.18;;
28613;SDS011;15806;53.548;9.964;2022-08-11T05:54:36;13.82;;;5.93;;
28613;SDS011;15806;53.548;9.964;2022-08-11T05:56:19;15.38;;;6.00;;
28613;SDS011;15806;53.548;9.964;2022-08-11T05:58:02;15.05;;;6.03;;
28613;SDS011;15806;53.548;9.964;2022-08-11T05:59:44;18.77;;;6.10;;
28613;SDS011;15806;53.548;9.964;2022-08-11T06:01:26;17.88;;;6.38;;
28613;SDS011;15806;53.548;9.964;2022-08-11T06:03:09;14.43;;;5.78;;
28613;SDS011;15806;53.548;9.964;2022-08-11T06:04:57;13.77;;;5.90;;
28613;SDS011;15806;53.548;9.964;2022-08-11T06:06:45;20.58;;;6.50;;
28613;SDS011;15806;53.548;9.964;2022-08-11T06:08:32;20.35;;;6.55;;
28613;SDS011;15806;53.548;9.964;2022-08-11T06:10:13;15.43;;;5.95;;
28613;SDS011;15806;53.548;9.964;2022-08-11T06:12:19;22.52;;;7.30;;
28613;SDS011;15806;53.548;9.964;2022-08-11T06:14:03;18.65;;;6.40;;
28613;SDS011;15806;53.548;9.964;2022-08-11T06:15:47;17.02;;;5.88;;
28613;SDS011;15806;53.548;9.964;2022-08-11T06:17:30;17.67;;;5.63;;
28613;SDS011;15806;53.548;9.964;2022-08-11T06:19:12;17.02;;;5.95;;
28613;SDS011;15806;53.548;9.964;2022-08-11T06:20:54;22.20;;;6.53;;
28613;SDS011;15806;53.548;9.964;2022-08-11T06:22:36;23.40;;;5.57;;
28613;SDS011;15806;53.548;9.964;2022-08-11T06:24:18;20.73;;;5.95;;
28613;SDS011;15806;53.548;9.964;2022-08-11T06:25:59;24.20;;;6.07;;
28613;SDS011;15806;53.548;9.964;2022-08-11T06:27:41;16.80;;;6.35;;
28613;SDS011;15806;53.548;9.964;2022-08-11T06:29:24;17.02;;;6.05;;
28613;SDS011;15806;53.548;9.964;2022-08-11T06:31:16;21.65;;;5.78;;
28613;SDS011;15806;53.548;9.964;2022-08-11T06:32:59;14.80;;;4.88;;
28613;SDS011;15806;53.548;9.964;2022-08-11T06:34:57;17.08;;;5.50;;
28613;SDS011;15806;53.548;9.964;2022-08-11T06:36:47;18.40;;;6.07;;
28613;SDS011;15806;53.548;9.964;2022-08-11T06:40:40;18.60;;;5.70;;
28613;SDS011;15806;53.548;9.964;2022-08-11T06:42:33;14.57;;;5.13;;
28613;SDS011;15806;53.548;9.964;2022-08-11T06:44:26;18.67;;;5.18;;
28613;SDS011;15806;53.548;9.964;2022-08-11T06:46:11;23.60;;;5.82;;
28613;SDS011;15806;53.548;9.964;2022-08-11T06:47:56;24.73;;;5.47;;
28613;SDS011;15806;53.548;9.964;2022-08-11T06:49:43;19.77;;;5.13;;
28613;SDS011;15806;53.548;9.964;2022-08-11T06:51:25;24.05;;;4.85;;
28613;SDS011;15806;53.548;9.964;2022-08-11T06:53:07;23.83;;;5.40;;
28613;SDS011;15806;53.548;9.964;2022-08-11T06:54:49;23.65;;;5.35;;
28613;SDS011;15806;53.548;9.964;2022-08-11T06:56:34;16.40;;;5.25;;
28613;SDS011;15806;53.548;9.964;2022-08-11T06:58:17;22.40;;;5.28;;
28613;SDS011;15806;53.548;9.964;2022-08-11T07:00:01;17.25;;;5.70;;
28613;SDS011;15806;53.548;9.964;2022-08-11T07:01:56;14.40;;;4.93;;
28613;SDS011;15806;53.548;9.964;2022-08-11T07:03:58;23.25;;;5.28;;
28613;SDS011;15806;53.548;9.964;2022-08-11T07:05:51;21.58;;;5.68;;
28613;SDS011;15806;53.548;9.964;2022-08-11T07:10:19;19.67;;;4.70;;
28613;SDS011;15806;53.548;9.964;2022-08-11T07:14:23;23.88;;;5.78;;
28613;SDS011;15806;53.548;9.964;2022-08-11T07:16:06;19.33;;;5.22;;
28613;SDS011;15806;53.548;9.964;2022-08-11T07:17:50;23.60;;;5.10;;
28613;SDS011;15806;53.548;9.964;2022-08-11T07:19:32;20.05;;;5.07;;
28613;SDS011;15806;53.548;9.964;2022-08-11T07:23:07;22.35;;;4.65;;
28613;SDS011;15806;53.548;9.964;2022-08-11T07:24:54;16.30;;;4.93;;
28613;SDS011;15806;53.548;9.964;2022-08-11T07:26:47;26.60;;;6.00;;
28613;SDS011;15806;53.548;9.964;2022-08-11T07:28:30;14.13;;;4.57;;
28613;SDS011;15806;53.548;9.964;2022-08-11T07:30:15;15.32;;;4.25;;
28613;SDS011;15806;53.548;9.964;2022-08-11T07:31:56;16.20;;;4.50;;
28613;SDS011;15806;53.548;9.964;2022-08-11T07:33:50;27.65;;;4.65;;
28613;SDS011;15806;53.548;9.964;2022-08-11T07:35:41;13.55;;;4.07;;
28613;SDS011;15806;53.548;9.964;2022-08-11T07:37:28;19.02;;;4.47;;
28613;SDS011;15806;53.548;9.964;2022-08-11T07:39:14;25.17;;;5.38;;
28613;SDS011;15806;53.548;9.964;2022-08-11T07:41:00;17.77;;;5.20;;
28613;SDS011;15806;53.548;9.964;2022-08-11T07:42:41;28.40;;;6.75;;
28613;SDS011;15806;53.548;9.964;2022-08-11T07:44:27;18.75;;;5.57;;
28613;SDS011;15806;53.548;9.964;2022-08-11T07:46:10;20.92;;;4.90;;
28613;SDS011;15806;53.548;9.964;2022-08-11T07:47:51;19.38;;;4.43;;
28613;SDS011;15806;53.548;9.964;2022-08-11T07:49:34;15.27;;;3.40;;
28613;SDS011;15806;53.548;9.964;2022-08-11T07:51:17;18.00;;;3.92;;
28613;SDS011;15806;53.548;9.964;2022-08-11T07:52:59;13.95;;;4.47;;
28613;SDS011;15806;53.548;9.964;2022-08-11T07:54:41;17.90;;;4.13;;
28613;SDS011;15806;53.548;9.964;2022-08-11T07:56:22;16.08;;;3.65;;
28613;SDS011;15806;53.548;9.964;2022-08-11T07:58:24;10.48;;;3.50;;
28613;SDS011;15806;53.548;9.964;2022-08-11T08:00:06;14.98;;;3.45;;
28613;SDS011;15806;53.548;9.964;2022-08-11T08:03:31;10.00;;;3.42;;
28613;SDS011;15806;53.548;9.964;2022-08-11T08:05:13;9.30;;;3.28;;
28613;SDS011;15806;53.548;9.964;2022-08-11T08:06:56;15.38;;;3.35;;
28613;SDS011;15806;53.548;9.964;2022-08-11T08:08:39;10.00;;;3.38;;
28613;SDS011;15806;53.548;9.964;2022-08-11T08:10:20;19.42;;;4.75;;
28613;SDS011;15806;53.548;9.964;2022-08-11T08:12:02;12.77;;;3.75;;
28613;SDS011;15806;53.548;9.964;2022-08-11T08:13:44;12.32;;;3.83;;
28613;SDS011;15806;53.548;9.964;2022-08-11T08:15:25;16.05;;;4.00;;
28613;SDS011;15806;53.548;9.964;2022-08-11T08:17:06;10.98;;;3.42;;
28613;SDS011;15806;53.548;9.964;2022-08-11T08:18:48;18.58;;;3.72;;
28613;SDS011;15806;53.548;9.964;2022-08-11T08:20:30;8.90;;;3.05;;
28613;SDS011;15806;53.548;9.964;2022-08-11T08:22:15;12.10;;;3.70;;
28613;SDS011;15806;53.548;9.964;2022-08-11T08:23:58;12.70;;;3.97;;
28613;SDS011;15806;53.548;9.964;2022-08-11T08:27:22;10.23;;;4.13;;
28613;SDS011;15806;53.548;9.964;2022-08-11T08:29:04;16.23;;;5.65;;
28613;SDS011;15806;53.548;9.964;2022-08-11T08:30:46;19.00;;;5.85;;
28613;SDS011;15806;53.548;9.964;2022-08-11T08:32:29;21.50;;;6.07;;
28613;SDS011;15806;53.548;9.964;2022-08-11T08:34:10;20.42;;;6.38;;
28613;SDS011;15806;53.548;9.964;2022-08-11T08:35:54;20.65;;;6.40;;
28613;SDS011;15806;53.548;9.964;2022-08-11T08:37:37;18.35;;;6.45;;
28613;SDS011;15806;53.548;9.964;2022-08-11T08:39:18;14.32;;;6.78;;
28613;SDS011;15806;53.548;9.964;2022-08-11T08:41:00;17.15;;;5.65;;
28613;SDS011;15806;53.548;9.964;2022-08-11T08:42:43;12.40;;;5.68;;
28613;SDS011;15806;53.548;9.964;2022-08-11T08:44:27;19.20;;;5.57;;
28613;SDS011;15806;53.548;9.964;2022-08-11T08:46:12;19.38;;;4.90;;
28613;SDS011;15806;53.548;9.964;2022-08-11T08:47:58;20.08;;;4.82;;
28613;SDS011;15806;53.548;9.964;2022-08-11T08:49:57;14.13;;;4.47;;
28613;SDS011;15806;53.548;9.964;2022-08-11T08:51:40;15.50;;;4.43;;
28613;SDS011;15806;53.548;9.964;2022-08-11T08:53:24;19.33;;;5.38;;
28613;SDS011;15806;53.548;9.964;2022-08-11T08:55:08;15.52;;;4.30;;
28613;SDS011;15806;53.548;9.964;2022-08-11T08:56:54;17.75;;;4.30;;
28613;SDS011;15806;53.548;9.964;2022-08-11T08:58:36;14.52;;;4.13;;
28613;SDS011;15806;53.548;9.964;2022-08-11T09:00:19;10.20;;;3.80;;
28613;SDS011;15806;53.548;9.964;2022-08-11T09:02:02;15.05;;;4.18;;
28613;SDS011;15806;53.548;9.964;2022-08-11T09:03:45;16.85;;;3.53;;
28613;SDS011;15806;53.548;9.964;2022-08-11T09:05:26;11.63;;;3.20;;
28613;SDS011;15806;53.548;9.964;2022-08-11T09:07:11;15.27;;;3.20;;
28613;SDS011;15806;53.548;9.964;2022-08-11T09:08:54;7.72;;;3.55;;
28613;SDS011;15806;53.548;9.964;2022-08-11T09:10:35;12.68;;;3.35;;
28613;SDS011;15806;53.548;9.964;2022-08-11T09:12:19;10.63;;;3.80;;
28613;SDS011;15806;53.548;9.964;2022-08-11T09:14:01;7.53;;;3.10;;
28613;SDS011;15806;53.548;9.964;2022-08-11T09:15:42;9.13;;;3.08;;
28613;SDS011;15806;53.548;9.964;2022-08-11T09:17:25;6.40;;;2.90;;
28613;SDS011;15806;53.548;9.964;2022-08-11T09:19:14;3.40;;;2.20;;
28613;SDS011;15806;53.548;9.964;2022-08-11T09:20:57;6.10;;;2.40;;
28613;SDS011;15806;53.548;9.964;2022-08-11T09:22:41;12.90;;;3.03;;
28613;SDS011;15806;53.548;9.964;2022-08-11T09:24:23;10.88;;;2.63;;
28613;SDS011;15806;53.548;9.964;2022-08-11T09:26:04;13.13;;;2.85;;
28613;SDS011;15806;53.548;9.964;2022-08-11T09:27:45;5.00;;;2.22;;
28613;SDS011;15806;53.548;9.964;2022-08-11T09:29:26;6.80;;;2.80;;
28613;SDS011;15806;53.548;9.964;2022-08-11T09:31:08;7.97;;;2.63;;
28613;SDS011;15806;53.548;9.964;2022-08-11T09:33:00;8.80;;;2.40;;
28613;SDS011;15806;53.548;9.964;2022-08-11T09:34:43;6.38;;;2.60;;
28613;SDS011;15806;53.548;9.964;2022-08-11T09:36:23;6.50;;;2.20;;
28613;SDS011;15806;53.548;9.964;2022-08-11T09:38:05;5.45;;;2.33;;
28613;SDS011;15806;53.548;9.964;2022-08-11T09:39:48;9.98;;;2.40;;
28613;SDS011;15806;53.548;9.964;2022-08-11T09:41:30;7.38;;;2.50;;
28613;SDS011;15806;53.548;9.964;2022-08-11T09:43:12;8.23;;;2.67;;
28613;SDS011;15806;53.548;9.964;2022-08-11T09:44:55;7.30;;;2.85;;
28613;SDS011;15806;53.548;9.964;2022-08-11T09:46:36;5.00;;;2.70;;
28613;SDS011;15806;53.548;9.964;2022-08-11T09:48:20;6.97;;;2.60;;
28613;SDS011;15806;53.548;9.964;2022-08-11T09:50:04;4.28;;;2.45;;
28613;SDS011;15806;53.548;9.964;2022-08-11T09:51:46;13.63;;;2.75;;
28613;SDS011;15806;53.548;9.964;2022-08-11T09:53:32;13.50;;;2.83;;
28613;SDS011;15806;53.548;9.964;2022-08-11T09:55:17;6.28;;;2.35;;
28613;SDS011;15806;53.548;9.964;2022-08-11T09:56:58;6.55;;;2.22;;
28613;SDS011;15806;53.548;9.964;2022-08-11T09:58:41;6.00;;;2.57;;
28613;SDS011;15806;53.548;9.964;2022-08-11T10:00:27;7.70;;;2.30;;
28613;SDS011;15806;53.548;9.964;2022-08-11T10:02:09;4.68;;;1.88;;
28613;SDS011;15806;53.548;9.964;2022-08-11T10:03:50;4.27;;;2.00;;
28613;SDS011;15806;53.548;9.964;2022-08-11T10:05:33;4.45;;;1.98;;
28613;SDS011;15806;53.548;9.964;2022-08-11T10:07:17;8.20;;;2.60;;
28613;SDS011;15806;53.548;9.964;2022-08-11T10:08:59;4.80;;;1.88;;
28613;SDS011;15806;53.548;9.964;2022-08-11T10:10:41;8.85;;;2.42;;
28613;SDS011;15806;53.548;9.964;2022-08-11T10:12:34;12.57;;;3.03;;
28613;SDS011;15806;53.548;9.964;2022-08-11T10:14:16;11.60;;;2.80;;
28613;SDS011;15806;53.548;9.964;2022-08-11T10:15:59;6.13;;;2.03;;
28613;SDS011;15806;53.548;9.964;2022-08-11T10:17:42;5.43;;;1.88;;
28613;SDS011;15806;53.548;9.964;2022-08-11T10:19:25;9.32;;;2.45;;
28613;SDS011;15806;53.548;9.964;2022-08-11T10:22:54;4.00;;;1.88;;
28613;SDS011;15806;53.548;9.964;2022-08-11T10:24:34;4.03;;;1.77;;
28613;SDS011;15806;53.548;9.964;2022-08-11T10:28:02;8.52;;;1.92;;
28613;SDS011;15806;53.548;9.964;2022-08-11T10:29:46;8.10;;;2.10;;
28613;SDS011;15806;53.548;9.964;2022-08-11T10:31:27;4.43;;;1.75;;
28613;SDS011;15806;53.548;9.964;2022-08-11T10:33:11;3.13;;;1.50;;
28613;SDS011;15806;53.548;9.964;2022-08-11T10:34:52;8.15;;;2.42;;
28613;SDS011;15806;53.548;9.964;2022-08-11T10:36:37;8.48;;;2.30;;
28613;SDS011;15806;53.548;9.964;2022-08-11T10:38:19;4.15;;;2.10;;
28613;SDS011;15806;53.548;9.964;2022-08-11T10:40:00;6.72;;;1.92;;
28613;SDS011;15806;53.548;9.964;2022-08-11T10:41:44;5.10;;;1.90;;
28613;SDS011;15806;53.548;9.964;2022-08-11T10:43:26;6.70;;;2.28;;
28613;SDS011;15806;53.548;9.964;2022-08-11T10:45:07;4.77;;;1.87;;
28613;SDS011;15806;53.548;9.964;2022-08-11T10:48:29;13.60;;;2.30;;
28613;SDS011;15806;53.548;9.964;2022-08-11T10:50:15;6.15;;;1.67;;
28613;SDS011;15806;53.548;9.964;2022-08-11T10:51:55;4.60;;;1.37;;
28613;SDS011;15806;53.548;9.964;2022-08-11T10:53:38;8.32;;;1.88;;
28613;SDS011;15806;53.548;9.964;2022-08-11T10:55:25;4.97;;;2.13;;
28613;SDS011;15806;53.548;9.964;2022-08-11T10:57:07;5.97;;;1.98;;
28613;SDS011;15806;53.548;9.964;2022-08-11T10:58:48;5.38;;;1.73;;
28613;SDS011;15806;53.548;9.964;2022-08-11T11:00:30;4.30;;;1.80;;
28613;SDS011;15806;53.548;9.964;2022-08-11T11:02:11;4.88;;;1.88;;
28613;SDS011;15806;53.548;9.964;2022-08-11T11:03:54;5.10;;;1.73;;
28613;SDS011;15806;53.548;9.964;2022-08-11T11:05:40;8.45;;;1.85;;
28613;SDS011;15806;53.548;9.964;2022-08-11T11:07:26;6.55;;;1.70;;
28613;SDS011;15806;53.548;9.964;2022-08-11T11:09:32;3.15;;;1.70;;
28613;SDS011;15806;53.548;9.964;2022-08-11T11:11:19;9.68;;;1.85;;
28613;SDS011;15806;53.548;9.964;2022-08-11T11:13:01;6.32;;;2.17;;
28613;SDS011;15806;53.548;9.964;2022-08-11T11:14:43;5.85;;;1.83;;
28613;SDS011;15806;53.548;9.964;2022-08-11T11:16:24;3.72;;;2.33;;
28613;SDS011;15806;53.548;9.964;2022-08-11T11:19:48;8.43;;;2.15;;
28613;SDS011;15806;53.548;9.964;2022-08-11T11:21:34;11.48;;;2.08;;
28613;SDS011;15806;53.548;9.964;2022-08-11T11:23:18;4.97;;;1.95;;
28613;SDS011;15806;53.548;9.964;2022-08-11T11:27:12;8.52;;;1.88;;
28613;SDS011;15806;53.548;9.964;2022-08-11T11:31:27;4.38;;;1.60;;
28613;SDS011;15806;53.548;9.964;2022-08-11T11:33:28;7.72;;;2.20;;
28613;SDS011;15806;53.548;9.964;2022-08-11T11:36:20;7.55;;;2.20;;
28613;SDS011;15806;53.548;9.964;2022-08-11T11:37:52;5.00;;;2.08;;
28613;SDS011;15806;53.548;9.964;2022-08-11T11:39:33;5.18;;;1.48;;
28613;SDS011;15806;53.548;9.964;2022-08-11T11:41:15;7.38;;;1.90;;
28613;SDS011;15806;53.548;9.964;2022-08-11T11:44:38;5.82;;;1.73;;
28613;SDS011;15806;53.548;9.964;2022-08-11T11:46:23;5.05;;;1.48;;
28613;SDS011;15806;53.548;9.964;2022-08-11T11:48:06;6.65;;;1.20;;
28613;SDS011;15806;53.548;9.964;2022-08-11T11:49:47;2.28;;;0.90;;
28613;SDS011;15806;53.548;9.964;2022-08-11T11:51:29;2.38;;;1.40;;
28613;SDS011;15806;53.548;9.964;2022-08-11T11:53:10;6.47;;;1.70;;
28613;SDS011;15806;53.548;9.964;2022-08-11T11:54:54;6.88;;;1.60;;
28613;SDS011;15806;53.548;9.964;2022-08-11T11:56:36;3.33;;;1.52;;
28613;SDS011;15806;53.548;9.964;2022-08-11T11:58:17;4.80;;;1.27;;
28613;SDS011;15806;53.548;9.964;2022-08-11T11:59:58;6.00;;;1.73;;
28613;SDS011;15806;53.548;9.964;2022-08-11T12:01:39;3.95;;;1.50;;
28613;SDS011;15806;53.548;9.964;2022-08-11T12:03:20;3.38;;;1.23;;
28613;SDS011;15806;53.548;9.964;2022-08-11T12:05:03;4.03;;;1.25;;
28613;SDS011;15806;53.548;9.964;2022-08-11T12:06:44;2.08;;;1.10;;
28613;SDS011;15806;53.548;9.964;2022-08-11T12:08:26;4.13;;;1.00;;
28613;SDS011;15806;53.548;9.964;2022-08-11T12:10:07;0.98;;;0.63;;
28613;SDS011;15806;53.548;9.964;2022-08-11T12:11:48;3.78;;;0.90;;
28613;SDS011;15806;53.548;9.964;2022-08-11T12:13:29;1.98;;;1.40;;
28613;SDS011;15806;53.548;9.964;2022-08-11T12:15:10;4.93;;;1.63;;
28613;SDS011;15806;53.548;9.964;2022-08-11T12:16:51;3.78;;;1.17;;
28613;SDS011;15806;53.548;9.964;2022-08-11T12:18:34;3.67;;;1.40;;
28613;SDS011;15806;53.548;9.964;2022-08-11T12:20:16;6.22;;;1.30;;
28613;SDS011;15806;53.548;9.964;2022-08-11T12:21:58;3.20;;;1.23;;
28613;SDS011;15806;53.548;9.964;2022-08-11T12:23:39;4.68;;;1.00;;
28613;SDS011;15806;53.548;9.964;2022-08-11T12:25:22;3.78;;;1.10;;
28613;SDS011;15806;53.548;9.964;2022-08-11T12:27:03;4.60;;;1.20;;
28613;SDS011;15806;53.548;9.964;2022-08-11T12:28:44;3.85;;;1.05;;
28613;SDS011;15806;53.548;9.964;2022-08-11T12:30:25;5.80;;;1.38;;
28613;SDS011;15806;53.548;9.964;2022-08-11T12:32:07;7.47;;;1.33;;
28613;SDS011;15806;53.548;9.964;2022-08-11T12:33:52;2.92;;;1.30;;
28613;SDS011;15806;53.548;9.964;2022-08-11T12:35:32;6.97;;;1.55;;
28613;SDS011;15806;53.548;9.964;2022-08-11T12:37:15;4.43;;;1.20;;
28613;SDS011;15806;53.548;9.964;2022-08-11T12:39:00;2.83;;;1.30;;
28613;SDS011;15806;53.548;9.964;2022-08-11T12:40:43;4.72;;;1.40;;
28613;SDS011;15806;53.548;9.964;2022-08-11T12:42:25;4.40;;;1.08;;
28613;SDS011;15806;53.548;9.964;2022-08-11T12:44:08;5.10;;;1.40;;
28613;SDS011;15806;53.548;9.964;2022-08-11T12:45:53;1.70;;;1.40;;
28613;SDS011;15806;53.548;9.964;2022-08-11T12:47:37;1.58;;;1.23;;
28613;SDS011;15806;53.548;9.964;2022-08-11T12:49:18;4.15;;;1.13;;
28613;SDS011;15806;53.548;9.964;2022-08-11T12:51:02;5.82;;;1.15;;
28613;SDS011;15806;53.548;9.964;2022-08-11T12:52:47;3.10;;;0.98;;
28613;SDS011;15806;53.548;9.964;2022-08-11T12:56:49;2.67;;;1.25;;
28613;SDS011;15806;53.548;9.964;2022-08-11T12:58:42;5.93;;;1.63;;
28613;SDS011;15806;53.548;9.964;2022-08-11T13:00:25;6.88;;;1.30;;
28613;SDS011;15806;53.548;9.964;2022-08-11T13:02:09;4.30;;;1.55;;
28613;SDS011;15806;53.548;9.964;2022-08-11T13:03:56;7.25;;;1.65;;
28613;SDS011;15806;53.548;9.964;2022-08-11T13:05:37;5.22;;;1.42;;
28613;SDS011;15806;53.548;9.964;2022-08-11T13:07:21;4.10;;;1.10;;
28613;SDS011;15806;53.548;9.964;2022-08-11T13:09:02;1.58;;;0.90;;
28613;SDS011;15806;53.548;9.964;2022-08-11T13:10:45;1.50;;;0.90;;
28613;SDS011;15806;53.548;9.964;2022-08-11T13:12:28;4.03;;;1.33;;
28613;SDS011;15806;53.548;9.964;2022-08-11T13:14:11;3.83;;;1.60;;
28613;SDS011;15806;53.548;9.964;2022-08-11T13:15:53;3.50;;;1.92;;
28613;SDS011;15806;53.548;9.964;2022-08-11T13:17:35;6.22;;;1.83;;
28613;SDS011;15806;53.548;9.964;2022-08-11T13:19:18;4.50;;;1.80;;
28613;SDS011;15806;53.548;9.964;2022-08-11T13:20:59;3.63;;;1.50;;
28613;SDS011;15806;53.548;9.964;2022-08-11T13:22:41;5.47;;;1.33;;
28613;SDS011;15806;53.548;9.964;2022-08-11T13:24:26;7.38;;;1.60;;
28613;SDS011;15806;53.548;9.964;2022-08-11T13:26:07;2.17;;;1.30;;
28613;SDS011;15806;53.548;9.964;2022-08-11T13:29:30;4.90;;;1.10;;
28613;SDS011;15806;53.548;9.964;2022-08-11T13:31:11;2.28;;;1.17;;
28613;SDS011;15806;53.548;9.964;2022-08-11T13:32:52;3.85;;;1.17;;
28613;SDS011;15806;53.548;9.964;2022-08-11T13:34:33;3.33;;;1.00;;
28613;SDS011;15806;53.548;9.964;2022-08-11T13:36:16;5.43;;;1.33;;
28613;SDS011;15806;53.548;9.964;2022-08-11T13:38:02;2.97;;;1.30;;
28613;SDS011;15806;53.548;9.964;2022-08-11T13:39:44;2.53;;;1.27;;
28613;SDS011;15806;53.548;9.964;2022-08-11T13:41:25;2.83;;;0.98;;
28613;SDS011;15806;53.548;9.964;2022-08-11T13:43:07;4.43;;;1.00;;
28613;SDS011;15806;53.548;9.964;2022-08-11T13:44:48;2.55;;;1.10;;
28613;SDS011;15806;53.548;9.964;2022-08-11T13:46:29;7.22;;;1.10;;
28613;SDS011;15806;53.548;9.964;2022-08-11T13:48:11;2.78;;;0.90;;
28613;SDS011;15806;53.548;9.964;2022-08-11T13:49:52;1.98;;;1.15;;
28613;SDS011;15806;53.548;9.964;2022-08-11T13:51:35;4.65;;;1.10;;
28613;SDS011;15806;53.548;9.964;2022-08-11T13:53:18;6.60;;;1.67;;
28613;SDS011;15806;53.548;9.964;2022-08-11T13:55:01;3.85;;;1.88;;
28613;SDS011;15806;53.548;9.964;2022-08-11T13:56:44;2.10;;;1.33;;
28613;SDS011;15806;53.548;9.964;2022-08-11T13:58:26;4.65;;;1.38;;